sensor_id;sensor_type;location;lat;lon;timestamp;P1;durP1;ratioP1;P2;durP2;ratioP2
5010;SDS011;2524;54.364;10.072;2023-11-21T00:01:27;6.50;;;5.90;;
5010;SDS011;2524;54.364;10.072;2023-11-21T00:03:52;6.30;;;5.80;;
5010;SDS011;2524;54.364;10.072;2023-11-21T00:06:20;5.87;;;5.47;;
5010;SDS011;2524;54.364;10.072;2023-11-21T00:08:45;6.13;;;5.50;;
5010;SDS011;2524;54.364;10.072;2023-11-21T00:11:11;5.53;;;5.03;;
5010;SDS011;2524;54.364;10.072;2023-11-21T00:13:36;6.63;;;6.03;;
5010;SDS011;2524;54.364;10.072;2023-11-21T00:16:02;5.23;;;4.87;;
5010;SDS011;2524;54.364;10.072;2023-11-21T00:18:29;6.23;;;5.50;;
5010;SDS011;2524;54.364;10.072;2023-11-21T00:20:54;6.43;;;5.83;;
5010;SDS011;2524;54.364;10.072;2023-11-21T00:23:20;7.23;;;5.53;;
5010;SDS011;2524;54.364;10.072;2023-11-21T00:25:46;5.80;;;5.30;;
5010;SDS011;2524;54.364;10.072;2023-11-21T00:28:11;6.10;;;5.50;;
5010;SDS011;2524;54.364;10.072;2023-11-21T00:30:37;5.40;;;4.90;;
5010;SDS011;2524;54.364;10.072;2023-11-21T00:33:03;4.60;;;4.30;;
5010;SDS011;2524;54.364;10.072;2023-11-21T00:35:29;3.90;;;3.70;;
5010;SDS011;2524;54.364;10.072;2023-11-21T00:37:54;5.30;;;4.80;;
5010;SDS011;2524;54.364;10.072;2023-11-21T00:40:21;4.60;;;4.27;;
5010;SDS011;2524;54.364;10.072;2023-11-21T00:42:47;4.90;;;4.60;;
5010;SDS011;2524;54.364;10.072;2023-11-21T00:45:12;5.70;;;5.20;;
5010;SDS011;2524;54.364;10.072;2023-11-21T00:47:38;6.30;;;5.70;;
5010;SDS011;2524;54.364;10.072;2023-11-21T00:50:04;5.80;;;5.30;;
5010;SDS011;2524;54.364;10.072;2023-11-21T00:52:31;5.90;;;5.17;;
5010;SDS011;2524;54.364;10.072;2023-11-21T00:54:57;4.57;;;4.30;;
5010;SDS011;2524;54.364;10.072;2023-11-21T00:57:25;5.50;;;5.00;;
5010;SDS011;2524;54.364;10.072;2023-11-21T00:59:51;5.00;;;4.70;;
5010;SDS011;2524;54.364;10.072;2023-11-21T01:02:16;7.10;;;6.50;;
5010;SDS011;2524;54.364;10.072;2023-11-21T01:04:42;7.23;;;6.67;;
5010;SDS011;2524;54.364;10.072;2023-11-21T01:07:08;7.10;;;6.47;;
5010;SDS011;2524;54.364;10.072;2023-11-21T01:09:34;6.90;;;6.40;;
5010;SDS011;2524;54.364;10.072;2023-11-21T01:11:59;6.10;;;5.60;;
5010;SDS011;2524;54.364;10.072;2023-11-21T01:14:25;6.73;;;6.03;;
5010;SDS011;2524;54.364;10.072;2023-11-21T01:16:54;6.63;;;6.07;;
5010;SDS011;2524;54.364;10.072;2023-11-21T01:19:19;6.07;;;5.50;;
5010;SDS011;2524;54.364;10.072;2023-11-21T01:21:45;7.37;;;6.30;;
5010;SDS011;2524;54.364;10.072;2023-11-21T01:24:10;6.30;;;5.70;;
5010;SDS011;2524;54.364;10.072;2023-11-21T01:26:36;5.70;;;5.20;;
5010;SDS011;2524;54.364;10.072;2023-11-21T01:29:01;5.27;;;4.87;;
5010;SDS011;2524;54.364;10.072;2023-11-21T01:31:27;6.30;;;5.70;;
5010;SDS011;2524;54.364;10.072;2023-11-21T01:33:54;5.80;;;5.40;;
5010;SDS011;2524;54.364;10.072;2023-11-21T01:36:21;6.77;;;6.10;;
5010;SDS011;2524;54.364;10.072;2023-11-21T01:38:46;5.93;;;5.53;;
5010;SDS011;2524;54.364;10.072;2023-11-21T01:41:13;6.17;;;5.57;;
5010;SDS011;2524;54.364;10.072;2023-11-21T01:43:39;6.73;;;6.03;;
5010;SDS011;2524;54.364;10.072;2023-11-21T01:46:05;5.83;;;5.43;;
5010;SDS011;2524;54.364;10.072;2023-11-21T01:48:31;7.00;;;6.30;;
5010;SDS011;2524;54.364;10.072;2023-11-21T01:50:57;6.90;;;6.20;;
5010;SDS011;2524;54.364;10.072;2023-11-21T01:53:24;5.70;;;5.20;;
5010;SDS011;2524;54.364;10.072;2023-11-21T01:55:51;6.07;;;5.57;;
5010;SDS011;2524;54.364;10.072;2023-11-21T01:58:17;5.13;;;4.83;;
5010;SDS011;2524;54.364;10.072;2023-11-21T02:00:43;4.87;;;4.57;;
5010;SDS011;2524;54.364;10.072;2023-11-21T02:03:08;6.87;;;5.73;;
5010;SDS011;2524;54.364;10.072;2023-11-21T02:05:35;8.00;;;7.20;;
5010;SDS011;2524;54.364;10.072;2023-11-21T02:08:01;6.17;;;5.67;;
5010;SDS011;2524;54.364;10.072;2023-11-21T02:10:27;7.50;;;6.87;;
5010;SDS011;2524;54.364;10.072;2023-11-21T02:12:54;8.10;;;7.40;;
5010;SDS011;2524;54.364;10.072;2023-11-21T02:15:21;5.87;;;5.37;;
5010;SDS011;2524;54.364;10.072;2023-11-21T02:17:48;5.93;;;5.50;;
5010;SDS011;2524;54.364;10.072;2023-11-21T02:20:16;5.83;;;5.43;;
5010;SDS011;2524;54.364;10.072;2023-11-21T02:22:43;5.83;;;5.33;;
5010;SDS011;2524;54.364;10.072;2023-11-21T02:25:13;5.93;;;5.50;;
5010;SDS011;2524;54.364;10.072;2023-11-21T02:27:39;6.37;;;5.87;;
5010;SDS011;2524;54.364;10.072;2023-11-21T02:30:04;6.00;;;5.33;;
5010;SDS011;2524;54.364;10.072;2023-11-21T02:32:32;5.97;;;5.47;;
5010;SDS011;2524;54.364;10.072;2023-11-21T02:34:59;5.53;;;5.03;;
5010;SDS011;2524;54.364;10.072;2023-11-21T02:37:28;4.93;;;4.63;;
5010;SDS011;2524;54.364;10.072;2023-11-21T02:39:53;4.20;;;3.90;;
5010;SDS011;2524;54.364;10.072;2023-11-21T02:42:19;4.33;;;4.10;;
5010;SDS011;2524;54.364;10.072;2023-11-21T02:44:44;4.30;;;4.00;;
5010;SDS011;2524;54.364;10.072;2023-11-21T02:47:10;4.07;;;3.87;;
5010;SDS011;2524;54.364;10.072;2023-11-21T02:49:35;4.80;;;4.50;;
5010;SDS011;2524;54.364;10.072;2023-11-21T02:52:01;5.60;;;5.20;;
5010;SDS011;2524;54.364;10.072;2023-11-21T02:54:27;6.00;;;5.50;;
5010;SDS011;2524;54.364;10.072;2023-11-21T02:56:52;4.83;;;4.53;;
5010;SDS011;2524;54.364;10.072;2023-11-21T02:59:18;6.00;;;5.53;;
5010;SDS011;2524;54.364;10.072;2023-11-21T03:01:44;5.70;;;5.30;;
5010;SDS011;2524;54.364;10.072;2023-11-21T03:04:10;5.23;;;4.73;;
5010;SDS011;2524;54.364;10.072;2023-11-21T03:06:36;4.67;;;4.37;;
5010;SDS011;2524;54.364;10.072;2023-11-21T03:09:01;5.40;;;5.00;;
5010;SDS011;2524;54.364;10.072;2023-11-21T03:11:27;4.83;;;4.43;;
5010;SDS011;2524;54.364;10.072;2023-11-21T03:13:53;5.43;;;5.03;;
5010;SDS011;2524;54.364;10.072;2023-11-21T03:16:18;4.53;;;4.23;;
5010;SDS011;2524;54.364;10.072;2023-11-21T03:18:44;3.50;;;3.30;;
5010;SDS011;2524;54.364;10.072;2023-11-21T03:21:09;5.20;;;4.80;;
5010;SDS011;2524;54.364;10.072;2023-11-21T03:23:35;4.53;;;4.23;;
5010;SDS011;2524;54.364;10.072;2023-11-21T03:26:01;4.03;;;3.83;;
5010;SDS011;2524;54.364;10.072;2023-11-21T03:28:27;4.40;;;4.10;;
5010;SDS011;2524;54.364;10.072;2023-11-21T03:30:53;4.00;;;3.70;;
5010;SDS011;2524;54.364;10.072;2023-11-21T03:33:19;3.67;;;3.37;;
5010;SDS011;2524;54.364;10.072;2023-11-21T03:35:45;3.50;;;3.30;;
5010;SDS011;2524;54.364;10.072;2023-11-21T03:38:11;3.67;;;3.37;;
5010;SDS011;2524;54.364;10.072;2023-11-21T03:40:37;3.27;;;3.07;;
5010;SDS011;2524;54.364;10.072;2023-11-21T03:43:04;3.30;;;3.20;;
5010;SDS011;2524;54.364;10.072;2023-11-21T03:45:30;4.00;;;3.53;;
5010;SDS011;2524;54.364;10.072;2023-11-21T03:47:55;3.43;;;3.23;;
5010;SDS011;2524;54.364;10.072;2023-11-21T03:50:21;3.60;;;3.30;;
5010;SDS011;2524;54.364;10.072;2023-11-21T03:52:49;3.83;;;3.63;;
5010;SDS011;2524;54.364;10.072;2023-11-21T03:55:15;3.83;;;3.53;;
5010;SDS011;2524;54.364;10.072;2023-11-21T03:57:41;3.87;;;3.57;;
5010;SDS011;2524;54.364;10.072;2023-11-21T04:00:07;3.07;;;2.87;;
5010;SDS011;2524;54.364;10.072;2023-11-21T04:02:34;3.10;;;2.90;;
5010;SDS011;2524;54.364;10.072;2023-11-21T04:05:00;3.80;;;3.33;;
5010;SDS011;2524;54.364;10.072;2023-11-21T04:07:25;3.37;;;3.17;;
5010;SDS011;2524;54.364;10.072;2023-11-21T04:09:51;3.17;;;2.97;;
5010;SDS011;2524;54.364;10.072;2023-11-21T04:12:18;3.27;;;3.07;;
5010;SDS011;2524;54.364;10.072;2023-11-21T04:14:44;3.13;;;2.93;;
5010;SDS011;2524;54.364;10.072;2023-11-21T04:17:09;3.83;;;3.53;;
5010;SDS011;2524;54.364;10.072;2023-11-21T04:19:35;2.70;;;2.60;;
5010;SDS011;2524;54.364;10.072;2023-11-21T04:22:01;5.67;;;3.33;;
5010;SDS011;2524;54.364;10.072;2023-11-21T04:24:26;3.10;;;2.90;;
5010;SDS011;2524;54.364;10.072;2023-11-21T04:26:52;2.47;;;2.37;;
5010;SDS011;2524;54.364;10.072;2023-11-21T04:29:18;2.60;;;2.50;;
5010;SDS011;2524;54.364;10.072;2023-11-21T04:31:44;2.93;;;2.73;;
5010;SDS011;2524;54.364;10.072;2023-11-21T04:34:09;4.30;;;3.10;;
5010;SDS011;2524;54.364;10.072;2023-11-21T04:36:35;3.60;;;2.70;;
5010;SDS011;2524;54.364;10.072;2023-11-21T04:39:00;2.40;;;2.30;;
5010;SDS011;2524;54.364;10.072;2023-11-21T04:41:26;3.03;;;2.83;;
5010;SDS011;2524;54.364;10.072;2023-11-21T04:43:52;2.83;;;2.63;;
5010;SDS011;2524;54.364;10.072;2023-11-21T04:46:17;3.27;;;3.00;;
5010;SDS011;2524;54.364;10.072;2023-11-21T04:48:43;2.73;;;2.60;;
5010;SDS011;2524;54.364;10.072;2023-11-21T04:51:09;2.97;;;2.80;;
5010;SDS011;2524;54.364;10.072;2023-11-21T04:53:36;3.30;;;3.00;;
5010;SDS011;2524;54.364;10.072;2023-11-21T04:56:02;3.57;;;3.30;;
5010;SDS011;2524;54.364;10.072;2023-11-21T04:58:28;3.03;;;2.87;;
5010;SDS011;2524;54.364;10.072;2023-11-21T05:00:53;2.43;;;2.30;;
5010;SDS011;2524;54.364;10.072;2023-11-21T05:03:19;3.00;;;2.90;;
5010;SDS011;2524;54.364;10.072;2023-11-21T05:05:45;3.10;;;2.80;;
5010;SDS011;2524;54.364;10.072;2023-11-21T05:08:11;2.83;;;2.73;;
5010;SDS011;2524;54.364;10.072;2023-11-21T05:10:36;3.10;;;2.80;;
5010;SDS011;2524;54.364;10.072;2023-11-21T05:13:04;3.33;;;3.13;;
5010;SDS011;2524;54.364;10.072;2023-11-21T05:15:34;3.07;;;2.97;;
5010;SDS011;2524;54.364;10.072;2023-11-21T05:18:00;3.00;;;2.80;;
5010;SDS011;2524;54.364;10.072;2023-11-21T05:20:25;3.23;;;3.00;;
5010;SDS011;2524;54.364;10.072;2023-11-21T05:22:51;2.97;;;2.77;;
5010;SDS011;2524;54.364;10.072;2023-11-21T05:25:17;3.20;;;2.90;;
5010;SDS011;2524;54.364;10.072;2023-11-21T05:27:43;3.13;;;2.90;;
5010;SDS011;2524;54.364;10.072;2023-11-21T05:30:10;3.80;;;2.70;;
5010;SDS011;2524;54.364;10.072;2023-11-21T05:32:37;2.73;;;2.53;;
5010;SDS011;2524;54.364;10.072;2023-11-21T05:35:03;6.13;;;3.20;;
5010;SDS011;2524;54.364;10.072;2023-11-21T05:37:34;5.80;;;2.70;;
5010;SDS011;2524;54.364;10.072;2023-11-21T05:40:00;2.93;;;2.40;;
5010;SDS011;2524;54.364;10.072;2023-11-21T05:42:30;2.37;;;2.27;;
5010;SDS011;2524;54.364;10.072;2023-11-21T05:44:59;2.80;;;2.53;;
5010;SDS011;2524;54.364;10.072;2023-11-21T05:47:35;3.00;;;2.80;;
5010;SDS011;2524;54.364;10.072;2023-11-21T05:50:09;4.30;;;3.00;;
5010;SDS011;2524;54.364;10.072;2023-11-21T05:52:38;3.10;;;3.00;;
5010;SDS011;2524;54.364;10.072;2023-11-21T05:55:06;4.33;;;3.87;;
5010;SDS011;2524;54.364;10.072;2023-11-21T05:57:39;3.97;;;3.53;;
5010;SDS011;2524;54.364;10.072;2023-11-21T06:00:10;4.07;;;3.77;;
5010;SDS011;2524;54.364;10.072;2023-11-21T06:02:51;3.73;;;3.43;;
5010;SDS011;2524;54.364;10.072;2023-11-21T06:05:22;3.87;;;3.57;;
5010;SDS011;2524;54.364;10.072;2023-11-21T06:07:49;4.10;;;3.70;;
5010;SDS011;2524;54.364;10.072;2023-11-21T06:10:15;4.70;;;4.30;;
5010;SDS011;2524;54.364;10.072;2023-11-21T06:12:44;4.07;;;3.77;;
5010;SDS011;2524;54.364;10.072;2023-11-21T06:15:10;4.70;;;4.17;;
5010;SDS011;2524;54.364;10.072;2023-11-21T06:17:39;4.50;;;4.20;;
5010;SDS011;2524;54.364;10.072;2023-11-21T06:20:06;4.23;;;3.93;;
5010;SDS011;2524;54.364;10.072;2023-11-21T06:22:39;3.90;;;3.60;;
5010;SDS011;2524;54.364;10.072;2023-11-21T06:25:06;4.10;;;3.90;;
5010;SDS011;2524;54.364;10.072;2023-11-21T06:27:33;4.00;;;3.70;;
5010;SDS011;2524;54.364;10.072;2023-11-21T06:29:59;4.30;;;3.90;;
5010;SDS011;2524;54.364;10.072;2023-11-21T06:32:25;4.40;;;4.10;;
5010;SDS011;2524;54.364;10.072;2023-11-21T06:34:51;4.80;;;4.40;;
5010;SDS011;2524;54.364;10.072;2023-11-21T06:37:19;4.30;;;4.10;;
5010;SDS011;2524;54.364;10.072;2023-11-21T06:39:46;4.30;;;4.00;;
5010;SDS011;2524;54.364;10.072;2023-11-21T06:42:11;4.57;;;4.20;;
5010;SDS011;2524;54.364;10.072;2023-11-21T06:44:37;6.87;;;5.73;;
5010;SDS011;2524;54.364;10.072;2023-11-21T06:47:04;4.70;;;4.30;;
5010;SDS011;2524;54.364;10.072;2023-11-21T06:49:30;5.17;;;4.70;;
5010;SDS011;2524;54.364;10.072;2023-11-21T06:51:56;4.30;;;4.10;;
5010;SDS011;2524;54.364;10.072;2023-11-21T06:54:22;4.47;;;4.17;;
5010;SDS011;2524;54.364;10.072;2023-11-21T06:56:48;3.83;;;3.63;;
5010;SDS011;2524;54.364;10.072;2023-11-21T06:59:13;4.37;;;4.07;;
5010;SDS011;2524;54.364;10.072;2023-11-21T07:01:39;3.80;;;3.60;;
5010;SDS011;2524;54.364;10.072;2023-11-21T07:04:06;4.50;;;4.20;;
5010;SDS011;2524;54.364;10.072;2023-11-21T07:06:32;3.70;;;3.50;;
5010;SDS011;2524;54.364;10.072;2023-11-21T07:08:58;4.00;;;3.70;;
5010;SDS011;2524;54.364;10.072;2023-11-21T07:11:23;4.13;;;3.83;;
5010;SDS011;2524;54.364;10.072;2023-11-21T07:13:50;4.77;;;4.30;;
5010;SDS011;2524;54.364;10.072;2023-11-21T07:16:15;4.20;;;3.90;;
5010;SDS011;2524;54.364;10.072;2023-11-21T07:18:41;5.57;;;5.17;;
5010;SDS011;2524;54.364;10.072;2023-11-21T07:21:07;5.17;;;4.60;;
5010;SDS011;2524;54.364;10.072;2023-11-21T07:23:33;4.47;;;4.07;;
5010;SDS011;2524;54.364;10.072;2023-11-21T07:25:59;5.20;;;4.80;;
5010;SDS011;2524;54.364;10.072;2023-11-21T07:28:24;6.03;;;4.50;;
5010;SDS011;2524;54.364;10.072;2023-11-21T07:30:53;5.53;;;5.03;;
5010;SDS011;2524;54.364;10.072;2023-11-21T07:33:18;5.50;;;4.80;;
5010;SDS011;2524;54.364;10.072;2023-11-21T07:35:44;4.43;;;4.03;;
5010;SDS011;2524;54.364;10.072;2023-11-21T07:38:09;5.10;;;4.47;;
5010;SDS011;2524;54.364;10.072;2023-11-21T07:40:35;6.90;;;6.17;;
5010;SDS011;2524;54.364;10.072;2023-11-21T07:43:01;5.40;;;5.03;;
5010;SDS011;2524;54.364;10.072;2023-11-21T07:45:26;5.00;;;4.60;;
5010;SDS011;2524;54.364;10.072;2023-11-21T07:47:55;7.40;;;5.40;;
5010;SDS011;2524;54.364;10.072;2023-11-21T07:50:21;5.83;;;5.07;;
5010;SDS011;2524;54.364;10.072;2023-11-21T07:52:47;5.17;;;4.67;;
5010;SDS011;2524;54.364;10.072;2023-11-21T07:55:14;4.90;;;4.50;;
5010;SDS011;2524;54.364;10.072;2023-11-21T07:57:41;4.53;;;4.13;;
5010;SDS011;2524;54.364;10.072;2023-11-21T08:00:06;6.07;;;4.60;;
5010;SDS011;2524;54.364;10.072;2023-11-21T08:02:34;5.20;;;4.80;;
5010;SDS011;2524;54.364;10.072;2023-11-21T08:05:00;4.63;;;4.33;;
5010;SDS011;2524;54.364;10.072;2023-11-21T08:07:25;4.70;;;4.30;;
5010;SDS011;2524;54.364;10.072;2023-11-21T08:09:51;4.53;;;4.23;;
5010;SDS011;2524;54.364;10.072;2023-11-21T08:12:17;3.77;;;3.57;;
5010;SDS011;2524;54.364;10.072;2023-11-21T08:14:45;4.80;;;4.33;;
5010;SDS011;2524;54.364;10.072;2023-11-21T08:17:10;4.20;;;3.90;;
5010;SDS011;2524;54.364;10.072;2023-11-21T08:19:36;4.40;;;4.10;;
5010;SDS011;2524;54.364;10.072;2023-11-21T08:22:02;4.17;;;3.87;;
5010;SDS011;2524;54.364;10.072;2023-11-21T08:24:28;3.70;;;3.50;;
5010;SDS011;2524;54.364;10.072;2023-11-21T08:26:54;5.20;;;4.70;;
5010;SDS011;2524;54.364;10.072;2023-11-21T08:29:20;4.63;;;4.20;;
5010;SDS011;2524;54.364;10.072;2023-11-21T08:31:45;4.07;;;3.77;;
5010;SDS011;2524;54.364;10.072;2023-11-21T08:34:12;4.63;;;4.33;;
5010;SDS011;2524;54.364;10.072;2023-11-21T08:36:41;3.90;;;3.50;;
5010;SDS011;2524;54.364;10.072;2023-11-21T08:39:08;3.80;;;3.60;;
5010;SDS011;2524;54.364;10.072;2023-11-21T08:41:34;4.13;;;3.73;;
5010;SDS011;2524;54.364;10.072;2023-11-21T08:44:01;3.13;;;3.00;;
5010;SDS011;2524;54.364;10.072;2023-11-21T08:46:31;3.67;;;3.40;;
5010;SDS011;2524;54.364;10.072;2023-11-21T08:48:58;4.43;;;3.73;;
5010;SDS011;2524;54.364;10.072;2023-11-21T08:51:25;3.70;;;3.50;;
5010;SDS011;2524;54.364;10.072;2023-11-21T08:53:51;3.63;;;3.33;;
5010;SDS011;2524;54.364;10.072;2023-11-21T08:56:17;3.43;;;3.27;;
5010;SDS011;2524;54.364;10.072;2023-11-21T08:58:44;3.43;;;3.33;;
5010;SDS011;2524;54.364;10.072;2023-11-21T09:01:11;3.20;;;3.00;;
5010;SDS011;2524;54.364;10.072;2023-11-21T09:03:37;2.80;;;2.70;;
5010;SDS011;2524;54.364;10.072;2023-11-21T09:06:03;3.03;;;2.90;;
5010;SDS011;2524;54.364;10.072;2023-11-21T09:08:29;2.80;;;2.70;;
5010;SDS011;2524;54.364;10.072;2023-11-21T09:10:55;3.87;;;3.67;;
5010;SDS011;2524;54.364;10.072;2023-11-21T09:13:20;3.93;;;3.63;;
5010;SDS011;2524;54.364;10.072;2023-11-21T09:15:46;3.40;;;3.13;;
5010;SDS011;2524;54.364;10.072;2023-11-21T09:18:15;3.23;;;3.13;;
5010;SDS011;2524;54.364;10.072;2023-11-21T09:20:40;3.30;;;3.10;;
5010;SDS011;2524;54.364;10.072;2023-11-21T09:23:08;3.40;;;3.10;;
5010;SDS011;2524;54.364;10.072;2023-11-21T09:25:34;3.73;;;3.50;;
5010;SDS011;2524;54.364;10.072;2023-11-21T09:28:01;3.30;;;3.10;;
5010;SDS011;2524;54.364;10.072;2023-11-21T09:30:26;3.77;;;3.50;;
5010;SDS011;2524;54.364;10.072;2023-11-21T09:32:52;3.67;;;3.47;;
5010;SDS011;2524;54.364;10.072;2023-11-21T09:35:17;3.40;;;3.20;;
5010;SDS011;2524;54.364;10.072;2023-11-21T09:37:46;3.60;;;3.40;;
5010;SDS011;2524;54.364;10.072;2023-11-21T09:40:12;3.40;;;3.10;;
5010;SDS011;2524;54.364;10.072;2023-11-21T09:42:43;3.30;;;3.00;;
5010;SDS011;2524;54.364;10.072;2023-11-21T09:45:24;3.70;;;3.40;;
5010;SDS011;2524;54.364;10.072;2023-11-21T09:47:52;5.73;;;3.57;;
5010;SDS011;2524;54.364;10.072;2023-11-21T09:50:20;3.00;;;2.90;;
5010;SDS011;2524;54.364;10.072;2023-11-21T09:55:19;2.70;;;2.60;;
5010;SDS011;2524;54.364;10.072;2023-11-21T09:57:46;3.00;;;2.90;;
5010;SDS011;2524;54.364;10.072;2023-11-21T10:00:13;2.97;;;2.87;;
5010;SDS011;2524;54.364;10.072;2023-11-21T10:02:42;3.43;;;3.23;;
5010;SDS011;2524;54.364;10.072;2023-11-21T10:05:08;3.10;;;2.80;;
5010;SDS011;2524;54.364;10.072;2023-11-21T10:07:39;3.70;;;3.50;;
5010;SDS011;2524;54.364;10.072;2023-11-21T10:10:06;3.30;;;3.10;;
5010;SDS011;2524;54.364;10.072;2023-11-21T10:12:33;3.30;;;3.00;;
5010;SDS011;2524;54.364;10.072;2023-11-21T10:15:00;2.80;;;2.60;;
5010;SDS011;2524;54.364;10.072;2023-11-21T10:17:28;2.80;;;2.67;;
5010;SDS011;2524;54.364;10.072;2023-11-21T10:20:01;3.30;;;3.00;;
5010;SDS011;2524;54.364;10.072;2023-11-21T10:22:31;2.57;;;2.47;;
5010;SDS011;2524;54.364;10.072;2023-11-21T10:24:56;3.10;;;2.90;;
5010;SDS011;2524;54.364;10.072;2023-11-21T10:27:22;3.23;;;3.00;;
5010;SDS011;2524;54.364;10.072;2023-11-21T10:29:50;2.63;;;2.53;;
5010;SDS011;2524;54.364;10.072;2023-11-21T10:32:16;2.90;;;2.80;;
5010;SDS011;2524;54.364;10.072;2023-11-21T10:34:42;2.93;;;2.83;;
5010;SDS011;2524;54.364;10.072;2023-11-21T10:37:11;3.17;;;2.90;;
5010;SDS011;2524;54.364;10.072;2023-11-21T10:39:37;3.83;;;3.53;;
5010;SDS011;2524;54.364;10.072;2023-11-21T10:42:04;6.27;;;3.80;;
5010;SDS011;2524;54.364;10.072;2023-11-21T10:44:32;4.27;;;3.97;;
5010;SDS011;2524;54.364;10.072;2023-11-21T10:46:59;6.60;;;4.30;;
5010;SDS011;2524;54.364;10.072;2023-11-21T10:49:26;3.63;;;3.40;;
5010;SDS011;2524;54.364;10.072;2023-11-21T10:51:52;4.00;;;3.70;;
5010;SDS011;2524;54.364;10.072;2023-11-21T10:54:22;4.13;;;3.73;;
5010;SDS011;2524;54.364;10.072;2023-11-21T10:56:50;3.80;;;3.60;;
5010;SDS011;2524;54.364;10.072;2023-11-21T10:59:26;3.30;;;3.20;;
5010;SDS011;2524;54.364;10.072;2023-11-21T11:01:54;3.57;;;3.23;;
5010;SDS011;2524;54.364;10.072;2023-11-21T11:04:22;2.80;;;2.70;;
5010;SDS011;2524;54.364;10.072;2023-11-21T11:07:02;3.03;;;2.93;;
5010;SDS011;2524;54.364;10.072;2023-11-21T11:09:28;3.03;;;2.90;;
5010;SDS011;2524;54.364;10.072;2023-11-21T11:11:57;2.93;;;2.80;;
5010;SDS011;2524;54.364;10.072;2023-11-21T11:14:24;2.83;;;2.63;;
5010;SDS011;2524;54.364;10.072;2023-11-21T11:16:53;3.17;;;2.97;;
5010;SDS011;2524;54.364;10.072;2023-11-21T11:19:20;3.10;;;2.90;;
5010;SDS011;2524;54.364;10.072;2023-11-21T11:21:50;5.60;;;2.80;;
5010;SDS011;2524;54.364;10.072;2023-11-21T11:24:44;4.20;;;3.60;;
5010;SDS011;2524;54.364;10.072;2023-11-21T11:27:33;3.97;;;2.93;;
5010;SDS011;2524;54.364;10.072;2023-11-21T11:38:27;2.53;;;2.43;;
5010;SDS011;2524;54.364;10.072;2023-11-21T11:41:00;2.93;;;2.83;;
5010;SDS011;2524;54.364;10.072;2023-11-21T11:43:28;3.00;;;2.90;;
5010;SDS011;2524;54.364;10.072;2023-11-21T11:45:56;3.30;;;3.10;;
5010;SDS011;2524;54.364;10.072;2023-11-21T11:48:22;2.67;;;2.57;;
5010;SDS011;2524;54.364;10.072;2023-11-21T11:51:09;4.40;;;3.03;;
5010;SDS011;2524;54.364;10.072;2023-11-21T11:53:39;2.87;;;2.67;;
5010;SDS011;2524;54.364;10.072;2023-11-21T11:56:30;3.57;;;3.27;;
5010;SDS011;2524;54.364;10.072;2023-11-21T11:59:00;3.00;;;2.90;;
5010;SDS011;2524;54.364;10.072;2023-11-21T12:01:33;2.90;;;2.80;;
5010;SDS011;2524;54.364;10.072;2023-11-21T12:06:42;3.43;;;3.23;;
5010;SDS011;2524;54.364;10.072;2023-11-21T12:09:18;3.60;;;3.30;;
5010;SDS011;2524;54.364;10.072;2023-11-21T12:11:46;3.43;;;3.23;;
5010;SDS011;2524;54.364;10.072;2023-11-21T12:14:13;4.33;;;3.70;;
5010;SDS011;2524;54.364;10.072;2023-11-21T12:16:39;3.10;;;2.90;;
5010;SDS011;2524;54.364;10.072;2023-11-21T12:19:05;3.83;;;3.60;;
5010;SDS011;2524;54.364;10.072;2023-11-21T12:21:31;3.83;;;3.63;;
5010;SDS011;2524;54.364;10.072;2023-11-21T12:23:57;3.70;;;3.50;;
5010;SDS011;2524;54.364;10.072;2023-11-21T12:26:23;3.60;;;3.30;;
5010;SDS011;2524;54.364;10.072;2023-11-21T12:28:55;3.50;;;3.27;;
5010;SDS011;2524;54.364;10.072;2023-11-21T12:31:21;3.00;;;2.80;;
5010;SDS011;2524;54.364;10.072;2023-11-21T12:33:47;3.13;;;3.03;;
5010;SDS011;2524;54.364;10.072;2023-11-21T12:36:13;2.87;;;2.77;;
5010;SDS011;2524;54.364;10.072;2023-11-21T12:38:39;3.47;;;3.17;;
5010;SDS011;2524;54.364;10.072;2023-11-21T12:41:05;3.40;;;3.30;;
5010;SDS011;2524;54.364;10.072;2023-11-21T12:43:31;3.50;;;3.30;;
5010;SDS011;2524;54.364;10.072;2023-11-21T12:46:07;3.50;;;3.17;;
5010;SDS011;2524;54.364;10.072;2023-11-21T12:48:36;2.87;;;2.67;;
5010;SDS011;2524;54.364;10.072;2023-11-21T12:51:04;3.00;;;2.80;;
5010;SDS011;2524;54.364;10.072;2023-11-21T12:53:31;2.93;;;2.73;;
5010;SDS011;2524;54.364;10.072;2023-11-21T12:56:05;3.00;;;2.80;;
5010;SDS011;2524;54.364;10.072;2023-11-21T12:58:36;2.60;;;2.50;;
5010;SDS011;2524;54.364;10.072;2023-11-21T13:01:04;2.70;;;2.60;;
5010;SDS011;2524;54.364;10.072;2023-11-21T13:03:30;3.50;;;3.30;;
5010;SDS011;2524;54.364;10.072;2023-11-21T13:05:57;3.50;;;3.20;;
5010;SDS011;2524;54.364;10.072;2023-11-21T13:08:24;3.10;;;3.00;;
5010;SDS011;2524;54.364;10.072;2023-11-21T13:10:55;3.10;;;2.90;;
5010;SDS011;2524;54.364;10.072;2023-11-21T13:13:21;3.07;;;2.87;;
5010;SDS011;2524;54.364;10.072;2023-11-21T13:15:49;3.17;;;3.07;;
5010;SDS011;2524;54.364;10.072;2023-11-21T13:18:21;2.70;;;2.50;;
5010;SDS011;2524;54.364;10.072;2023-11-21T13:20:48;3.40;;;3.07;;
5010;SDS011;2524;54.364;10.072;2023-11-21T13:23:15;2.90;;;2.80;;
5010;SDS011;2524;54.364;10.072;2023-11-21T13:25:41;2.70;;;2.53;;
5010;SDS011;2524;54.364;10.072;2023-11-21T13:28:08;3.20;;;2.90;;
5010;SDS011;2524;54.364;10.072;2023-11-21T13:30:34;3.43;;;3.23;;
5010;SDS011;2524;54.364;10.072;2023-11-21T13:33:01;3.03;;;2.90;;
5010;SDS011;2524;54.364;10.072;2023-11-21T13:35:32;2.40;;;2.33;;
5010;SDS011;2524;54.364;10.072;2023-11-21T13:38:07;2.77;;;2.67;;
5010;SDS011;2524;54.364;10.072;2023-11-21T13:40:34;4.23;;;2.50;;
5010;SDS011;2524;54.364;10.072;2023-11-21T13:43:07;2.80;;;2.60;;
5010;SDS011;2524;54.364;10.072;2023-11-21T13:45:44;1.97;;;1.87;;
5010;SDS011;2524;54.364;10.072;2023-11-21T13:48:11;2.73;;;2.57;;
5010;SDS011;2524;54.364;10.072;2023-11-21T13:50:44;3.07;;;2.87;;
5010;SDS011;2524;54.364;10.072;2023-11-21T13:53:20;3.70;;;3.43;;
5010;SDS011;2524;54.364;10.072;2023-11-21T13:55:49;2.97;;;2.87;;
5010;SDS011;2524;54.364;10.072;2023-11-21T13:58:19;3.30;;;3.10;;
5010;SDS011;2524;54.364;10.072;2023-11-21T14:00:48;2.33;;;2.23;;
5010;SDS011;2524;54.364;10.072;2023-11-21T14:03:21;3.10;;;2.90;;
5010;SDS011;2524;54.364;10.072;2023-11-21T14:05:50;2.80;;;2.67;;
5010;SDS011;2524;54.364;10.072;2023-11-21T14:08:20;3.30;;;3.03;;
5010;SDS011;2524;54.364;10.072;2023-11-21T14:10:48;2.77;;;2.57;;
5010;SDS011;2524;54.364;10.072;2023-11-21T14:13:20;2.40;;;2.30;;
5010;SDS011;2524;54.364;10.072;2023-11-21T14:15:48;2.70;;;2.50;;
5010;SDS011;2524;54.364;10.072;2023-11-21T14:18:16;2.67;;;2.57;;
5010;SDS011;2524;54.364;10.072;2023-11-21T14:20:42;2.70;;;2.60;;
5010;SDS011;2524;54.364;10.072;2023-11-21T14:23:09;3.03;;;2.73;;
5010;SDS011;2524;54.364;10.072;2023-11-21T14:25:35;2.40;;;2.30;;
5010;SDS011;2524;54.364;10.072;2023-11-21T14:28:02;2.80;;;2.70;;
5010;SDS011;2524;54.364;10.072;2023-11-21T14:30:29;2.30;;;2.20;;
5010;SDS011;2524;54.364;10.072;2023-11-21T14:33:00;2.50;;;2.40;;
5010;SDS011;2524;54.364;10.072;2023-11-21T14:35:26;2.70;;;2.53;;
5010;SDS011;2524;54.364;10.072;2023-11-21T14:37:52;5.83;;;3.03;;
5010;SDS011;2524;54.364;10.072;2023-11-21T14:40:18;3.40;;;3.17;;
5010;SDS011;2524;54.364;10.072;2023-11-21T14:42:52;3.13;;;2.90;;
5010;SDS011;2524;54.364;10.072;2023-11-21T14:45:19;3.00;;;2.90;;
5010;SDS011;2524;54.364;10.072;2023-11-21T14:47:48;3.00;;;2.80;;
5010;SDS011;2524;54.364;10.072;2023-11-21T14:50:32;2.83;;;2.20;;
5010;SDS011;2524;54.364;10.072;2023-11-21T14:53:28;2.47;;;2.37;;
5010;SDS011;2524;54.364;10.072;2023-11-21T14:56:08;2.70;;;2.50;;
5010;SDS011;2524;54.364;10.072;2023-11-21T14:58:35;3.10;;;2.90;;
5010;SDS011;2524;54.364;10.072;2023-11-21T15:01:02;3.00;;;2.77;;
5010;SDS011;2524;54.364;10.072;2023-11-21T15:03:29;2.50;;;2.40;;
5010;SDS011;2524;54.364;10.072;2023-11-21T15:06:02;2.77;;;2.67;;
5010;SDS011;2524;54.364;10.072;2023-11-21T15:08:58;3.53;;;3.33;;
5010;SDS011;2524;54.364;10.072;2023-11-21T15:11:33;2.87;;;2.67;;
5010;SDS011;2524;54.364;10.072;2023-11-21T15:13:59;2.50;;;2.40;;
5010;SDS011;2524;54.364;10.072;2023-11-21T15:16:25;3.27;;;3.07;;